Time;durP1;ratioP1;P1;durP2;ratioP2;P2;SDS_P1;SDS_P2;PMS_P1;PMS_P2;Temp;Humidity;BMP_temperature;BMP_pressure;BME280_temperature;BME280_humidity;BME280_pressure;Samples;Min_cycle;Max_cycle;Signal;HPM_P1;HPM_P2
2021/12/29 00:01:49;;;;;;;24.03;12.63;;;;;;;1.25;90.15;98256.56;5046138;23;20226;-82
2021/12/29 00:05:44;;;;;;;27.03;12.87;;;;;;;1.23;90.75;98258.56;5056320;28;20178;-82
2021/12/29 00:08:49;;;;;;;27.47;13.27;;;;;;;1.18;91.42;98264.41;5058363;28;20234;-82
2021/12/29 00:12:10;;;;;;;25.47;12.90;;;;;;;1.15;91.23;98261.34;5057260;28;20197;-83
2021/12/29 00:22:37;;;;;;;24.80;13.27;;;;;;;1.09;92.21;98262.13;4997545;23;20230;-82
2021/12/29 00:25:27;;;;;;;24.33;13.83;;;;;;;1.08;92.14;98265.75;5035791;23;20237;-83
2021/12/29 00:28:18;;;;;;;22.87;13.33;;;;;;;1.20;92.60;98294.06;5016886;23;20332;-82
2021/12/29 00:31:25;;;;;;;25.00;14.03;;;;;;;1.26;92.23;98292.50;5015660;23;20239;31
2021/12/29 00:35:12;;;;;;;25.80;13.77;;;;;;;1.28;92.34;98286.00;5099066;23;20230;-83
2021/12/29 00:38:16;;;;;;;24.07;13.87;;;;;;;1.30;92.55;98306.94;5038787;28;20236;-83
2021/12/29 00:42:08;;;;;;;26.43;15.00;;;;;;;1.33;92.26;98291.53;5020349;23;20610;-83
2021/12/29 00:45:13;;;;;;;25.77;13.63;;;;;;;1.20;92.03;98275.59;5045689;23;20245;-82
2021/12/29 00:48:58;;;;;;;27.73;14.83;;;;;;;1.32;92.11;98294.34;5083081;23;20241;-83
2021/12/29 00:56:56;;;;;;;28.23;15.63;;;;;;;1.30;91.93;98301.66;5045530;23;20233;-82
2021/12/29 01:00:32;;;;;;;31.97;15.03;;;;;;;1.34;92.37;98287.06;5039037;28;20226;-83
2021/12/29 01:03:43;;;;;;;30.27;15.00;;;;;;;1.25;91.97;98288.22;5045897;23;20257;-82
2021/12/29 01:07:24;;;;;;;28.87;14.80;;;;;;;1.25;92.13;98285.59;5055348;23;20202;-82
2021/12/29 01:10:56;;;;;;;31.17;15.43;;;;;;;1.27;91.74;98280.91;5036895;28;20210;-83
2021/12/29 01:14:52;;;;;;;27.27;15.20;;;;;;;1.28;92.23;98293.09;5045616;23;20223;-82
2021/12/29 01:18:08;;;;;;;29.87;15.03;;;;;;;1.28;91.76;98278.09;5037455;28;20210;-83
2021/12/29 01:24:51;;;;;;;28.43;15.30;;;;;;;1.29;90.95;98265.72;5036257;23;20229;-83
2021/12/29 01:28:06;;;;;;;25.57;15.07;;;;;;;1.17;90.74;98268.06;5034683;28;20237;-82
2021/12/29 01:31:37;;;;;;;31.83;13.60;;;;;;;1.10;91.22;98266.41;5038316;28;20266;-82
2021/12/29 01:35:02;;;;;;;25.97;13.90;;;;;;;1.04;91.91;98275.88;5038383;28;20258;-82
2021/12/29 01:37:49;;;;;;;28.77;14.63;;;;;;;1.06;91.65;98280.97;5039083;28;20201;-83
2021/12/29 01:41:09;;;;;;;28.07;14.57;;;;;;;1.04;92.64;98282.97;5026185;28;20214;-82
2021/12/29 01:43:51;;;;;;;25.63;14.33;;;;;;;1.10;92.61;98288.31;5038986;28;20194;-82
2021/12/29 01:47:07;;;;;;;30.33;15.33;;;;;;;0.88;92.44;98261.19;5045451;23;20289;-83
2021/12/29 01:50:48;;;;;;;29.87;14.73;;;;;;;1.14;92.27;98286.09;5038065;28;20222;-82
2021/12/29 01:54:23;;;;;;;31.03;14.57;;;;;;;1.08;91.76;98285.03;5038306;28;20221;-83
2021/12/29 01:57:23;;;;;;;27.10;14.23;;;;;;;1.13;91.88;98280.00;5054192;28;20229;-82
2021/12/29 02:00:32;;;;;;;49.90;16.03;;;;;;;1.14;92.19;98273.72;5048960;28;20221;-82
2021/12/29 02:03:47;;;;;;;38.13;14.70;;;;;;;1.11;91.99;98268.03;5037972;28;20194;-83
2021/12/29 02:06:50;;;;;;;30.00;15.23;;;;;;;1.23;92.39;98291.03;5038401;28;20212;-82
2021/12/29 02:10:36;;;;;;;29.43;14.93;;;;;;;1.10;92.14;98258.47;5043196;23;20223;-82
2021/12/29 02:13:28;;;;;;;30.27;15.03;;;;;;;1.26;92.18;98280.09;5030882;28;20621;-82
2021/12/29 02:16:08;;;;;;;33.70;16.13;;;;;;;1.32;92.20;98271.41;5044941;23;20651;-82
2021/12/29 02:19:23;;;;;;;30.63;15.83;;;;;;;1.33;92.16;98282.78;5029978;28;20228;-82
2021/12/29 02:23:00;;;;;;;54.87;16.20;;;;;;;1.40;92.57;98285.47;5062563;22;20215;-82
2021/12/29 02:26:01;;;;;;;34.67;15.53;;;;;;;1.34;91.34;98273.88;5051103;28;20186;-83
2021/12/29 02:29:29;;;;;;;56.93;16.13;;;;;;;1.19;91.93;98273.16;5043677;23;20226;-83
2021/12/29 02:32:49;;;;;;;64.77;16.47;;;;;;;1.18;92.47;98274.97;5049163;28;20244;-82
2021/12/29 02:39:22;;;;;;;34.50;15.30;;;;;;;0.90;92.38;98271.50;5045281;23;20231;-82
2021/12/29 02:42:08;;;;;;;39.70;15.70;;;;;;;1.07;92.73;98298.44;4976232;28;20224;-82
2021/12/29 02:45:33;;;;;;;94.20;17.97;;;;;;;1.06;92.93;98310.81;4977823;28;20283;-82
2021/12/29 02:49:02;;;;;;;41.10;15.50;;;;;;;0.87;93.01;98277.19;5003716;23;21354;-82
2021/12/29 02:52:09;;;;;;;41.60;14.53;;;;;;;1.04;92.88;98304.06;5030013;28;20269;-82
2021/12/29 02:55:02;;;;;;;33.67;15.03;;;;;;;1.14;93.53;98313.31;4980758;28;20202;-83
2021/12/29 02:58:28;;;;;;;30.37;15.67;;;;;;;1.09;93.19;98293.78;5037640;23;20196;-82
2021/12/29 03:01:45;;;;;;;33.70;15.40;;;;;;;1.11;92.66;98305.78;5082152;23;20226;-82
2021/12/29 03:05:24;;;;;;;61.67;15.07;;;;;;;1.12;93.00;98304.75;5008289;23;20288;-82
2021/12/29 03:08:51;;;;;;;65.83;15.40;;;;;;;1.15;92.97;98295.66;4988843;28;20655;-82
2021/12/29 03:11:40;;;;;;;50.07;16.00;;;;;;;1.17;93.11;98306.81;4993704;28;20208;-83
2021/12/29 03:14:29;;;;;;;31.87;15.00;;;;;;;1.17;92.99;98309.44;4965440;28;20227;-82
2021/12/29 03:17:50;;;;;;;27.57;15.13;;;;;;;1.18;92.89;98311.91;4990695;28;20206;-82
2021/12/29 03:21:24;;;;;;;29.03;15.50;;;;;;;1.19;92.94;98318.00;4994206;28;20232;-82
2021/12/29 03:24:35;;;;;;;25.70;13.53;;;;;;;1.22;92.93;98320.25;4993503;28;20200;-82
2021/12/29 03:27:39;;;;;;;33.23;15.20;;;;;;;1.23;93.06;98327.16;4991433;28;20231;-82
2021/12/29 03:30:28;;;;;;;29.37;14.67;;;;;;;1.20;93.42;98320.47;5034955;23;20230;-82
2021/12/29 03:33:17;;;;;;;33.67;15.47;;;;;;;1.18;93.11;98313.72;5033707;28;20238;-82
2021/12/29 03:35:57;;;;;;;28.30;14.10;;;;;;;1.22;93.22;98313.16;5031193;28;20234;-82
2021/12/29 03:38:58;;;;;;;34.03;15.30;;;;;;;1.25;93.10;98322.53;5045346;23;20240;-82
2021/12/29 03:42:38;;;;;;;45.03;15.57;;;;;;;1.23;92.66;98322.69;5052441;28;20182;-82
2021/12/29 03:45:47;;;;;;;43.87;14.93;;;;;;;1.23;93.52;98329.78;5129876;23;20231;-82
2021/12/29 03:48:23;;;;;;;35.57;15.17;;;;;;;1.20;93.38;98330.19;5030561;28;20234;-82
2021/12/29 03:51:31;;;;;;;36.57;15.93;;;;;;;1.21;92.88;98337.91;5033127;28;20219;-82
2021/12/29 03:54:24;;;;;;;36.13;14.93;;;;;;;1.16;92.61;98328.94;5031731;28;20227;-82
2021/12/29 03:57:33;;;;;;;33.60;14.67;;;;;;;1.27;93.04;98338.97;5030388;28;20369;-82
2021/12/29 04:00:41;;;;;;;31.57;14.30;;;;;;;1.15;92.33;98317.56;5031327;28;20265;-82
2021/12/29 04:03:44;;;;;;;24.67;13.77;;;;;;;1.20;93.42;98330.19;5026776;28;20605;-82
2021/12/29 04:06:21;;;;;;;26.23;13.83;;;;;;;1.21;92.85;98337.09;5040046;23;20250;-82
2021/12/29 04:09:08;;;;;;;26.33;14.40;;;;;;;1.21;92.80;98348.44;5041478;28;20546;-82
2021/12/29 04:12:15;;;;;;;25.43;13.93;;;;;;;1.13;92.70;98332.75;5031459;28;20227;-82
2021/12/29 04:15:24;;;;;;;23.53;13.43;;;;;;;1.15;93.03;98340.50;5028702;28;20234;-82
2021/12/29 04:18:45;;;;;;;20.63;13.10;;;;;;;1.18;92.78;98340.94;5045363;28;20225;-83
2021/12/29 04:21:43;;;;;;;24.80;13.20;;;;;;;1.11;92.75;98332.16;5029406;28;20250;-83
2021/12/29 04:24:58;;;;;;;22.17;12.47;;;;;;;1.14;92.93;98331.75;5031516;28;20221;-84
2021/12/29 04:27:39;;;;;;;21.87;12.47;;;;;;;1.14;93.23;98328.31;5032366;28;20186;-82
2021/12/29 04:30:43;;;;;;;28.63;13.90;;;;;;;1.22;93.04;98333.44;5024277;28;20305;-83
2021/12/29 04:33:57;;;;;;;22.03;13.37;;;;;;;1.21;93.27;98326.56;5011811;28;20596;-82
2021/12/29 04:37:13;;;;;;;22.80;12.73;;;;;;;1.23;93.38;98324.53;5012576;28;20227;-82
2021/12/29 04:39:47;;;;;;;25.53;13.63;;;;;;;1.17;92.96;98334.00;5012581;28;20302;-83
2021/12/29 04:43:27;;;;;;;29.17;13.90;;;;;;;1.42;92.79;98341.50;5001392;28;20273;-83
2021/12/29 04:46:27;;;;;;;25.83;13.53;;;;;;;1.33;92.30;98359.31;5015221;28;20196;-82
2021/12/29 04:49:53;;;;;;;45.00;14.97;;;;;;;1.41;92.21;98355.69;5122539;22;20222;-82
2021/12/29 04:53:45;;;;;;;45.47;13.90;;;;;;;1.31;92.10;98346.28;5058167;23;20226;-82
2021/12/29 04:56:41;;;;;;;27.67;13.83;;;;;;;1.17;92.77;98333.19;5052259;28;20206;-82
2021/12/29 04:59:31;;;;;;;26.73;14.13;;;;;;;1.32;92.38;98355.03;5052319;28;20233;-82
2021/12/29 05:02:16;;;;;;;27.43;15.17;;;;;;;1.34;92.71;98368.88;5042320;28;20218;-82
2021/12/29 05:05:53;;;;;;;99.33;17.77;;;;;;;1.37;93.17;98359.72;5049992;28;20198;-82
2021/12/29 05:08:31;;;;;;;27.07;14.80;;;;;;;1.36;92.25;98372.13;5056228;23;20858;-82
2021/12/29 05:11:47;;;;;;;30.33;15.23;;;;;;;1.40;92.91;98364.66;5056266;23;20219;-83
2021/12/29 05:15:03;;;;;;;27.93;15.23;;;;;;;1.42;92.92;98355.53;5039420;23;20238;-82
2021/12/29 05:18:56;;;;;;;101.67;17.63;;;;;;;1.52;92.98;98349.91;5128527;23;20253;-82
2021/12/29 05:22:05;;;;;;;29.17;14.87;;;;;;;1.53;92.20;98360.28;5054154;23;20237;-82
2021/12/29 05:24:59;;;;;;;26.67;14.50;;;;;;;1.57;92.47;98371.25;5062561;22;20218;-83
2021/12/29 05:27:58;;;;;;;36.57;20.30;;;;;;;1.55;93.13;98360.88;5058963;23;20226;-83
2021/12/29 05:30:55;;;;;;;32.00;19.83;;;;;;;1.61;92.90;98370.69;5052200;28;20226;-82
2021/12/29 05:38:01;;;;;;;31.77;17.20;;;;;;;1.64;93.51;98369.47;1061687;22;20614;-81
2021/12/29 05:41:39;;;;;;;28.17;16.43;;;;;;;1.59;93.14;98358.66;5033594;28;20233;-82
2021/12/29 05:44:39;;;;;;;31.27;18.67;;;;;;;1.75;93.31;98377.69;5053970;23;20320;-83
2021/12/29 05:47:55;;;;;;;29.37;15.43;;;;;;;1.57;92.66;98339.59;5058164;23;20237;-82
2021/12/29 05:50:54;;;;;;;24.17;14.93;;;;;;;1.77;91.90;98377.50;5046618;23;20282;-82
2021/12/29 05:53:54;;;;;;;33.13;20.57;;;;;;;1.74;92.40;98362.84;5042880;23;20249;-82
2021/12/29 06:01:13;;;;;;;19.80;12.07;;;;;;;1.78;92.32;98372.00;5064323;23;20230;-82
2021/12/29 06:04:49;;;;;;;20.77;12.23;;;;;;;1.81;92.69;98385.84;5056228;28;20226;-82
2021/12/29 06:11:49;;;;;;;19.47;11.27;;;;;;;1.87;92.34;98393.00;5053173;22;20237;-83
2021/12/29 06:15:18;;;;;;;19.90;11.63;;;;;;;1.83;92.23;98389.09;5024418;28;20222;-82
2021/12/29 06:18:27;;;;;;;18.50;11.20;;;;;;;1.86;91.65;98394.81;5062589;22;20253;-82
2021/12/29 06:21:28;;;;;;;18.43;11.20;;;;;;;1.87;91.90;98400.91;5051559;23;20644;-82
2021/12/29 06:24:17;;;;;;;17.97;11.27;;;;;;;1.86;91.94;98415.13;5042098;23;20241;-82
2021/12/29 06:27:51;;;;;;;18.27;11.43;;;;;;;1.86;91.83;98407.22;5036081;23;20250;-83
2021/12/29 06:30:58;;;;;;;18.37;11.30;;;;;;;1.74;92.34;98397.16;5072265;23;20238;-83
2021/12/29 06:38:04;;;;;;;17.23;10.93;;;;;;;1.87;92.21;98411.50;5064650;23;20250;-83
2021/12/29 06:41:24;;;;;;;16.40;11.50;;;;;;;1.86;91.96;98408.03;5034953;28;20249;-83
2021/12/29 06:44:05;;;;;;;31.73;12.27;;;;;;;1.85;91.47;98402.94;5048727;23;20218;-83
2021/12/29 06:50:25;;;;;;;17.30;10.93;;;;;;;1.90;92.14;98434.84;5010940;28;20223;-83
2021/12/29 06:53:53;;;;;;;17.03;11.20;;;;;;;1.87;92.16;98416.78;5015979;28;20250;-83
2021/12/29 06:56:47;;;;;;;20.00;13.33;;;;;;;1.99;91.46;98434.53;5013024;28;20698;-82
2021/12/29 07:00:16;;;;;;;18.07;11.50;;;;;;;1.91;92.24;98421.47;5031879;23;20233;-83
2021/12/29 07:03:23;;;;;;;17.93;10.93;;;;;;;2.11;91.90;98440.06;5046113;23;20227;-82
2021/12/29 07:06:30;;;;;;;17.13;11.00;;;;;;;2.11;91.83;98438.25;5022075;23;20234;-83
2021/12/29 07:09:27;;;;;;;17.33;11.17;;;;;;;2.07;91.63;98441.47;5041494;23;20230;-83
2021/12/29 07:12:36;;;;;;;17.77;10.90;;;;;;;2.11;92.16;98429.50;5042907;23;20230;-82
2021/12/29 07:15:17;;;;;;;17.40;11.10;;;;;;;2.02;91.66;98425.38;5022259;23;20211;-83
2021/12/29 07:18:17;;;;;;;16.00;10.77;;;;;;;2.13;90.62;98425.66;5035635;28;20231;-83
2021/12/29 07:21:48;;;;;;;13.50;10.13;;;;;;;2.26;90.71;98437.31;5015783;23;20253;-83
2021/12/29 07:27:58;;;;;;;16.20;11.80;;;;;;;2.38;90.97;98447.13;5010268;23;20223;-83
2021/12/29 07:31:41;;;;;;;15.60;10.50;;;;;;;2.36;90.24;98457.09;5024967;28;20203;-83
2021/12/29 07:34:55;;;;;;;14.33;9.67;;;;;;;2.42;90.65;98456.31;5119295;23;21268;-83
2021/12/29 07:38:22;;;;;;;14.63;9.97;;;;;;;2.50;90.46;98464.06;5044106;23;20230;-83
2021/12/29 07:41:31;;;;;;;14.47;9.73;;;;;;;2.56;90.43;98454.53;5193880;23;20237;-82
2021/12/29 07:44:47;;;;;;;16.00;10.13;;;;;;;2.59;89.84;98457.59;5072856;23;20301;-82
2021/12/29 07:48:09;;;;;;;14.40;9.20;;;;;;;2.62;89.58;98459.03;5064936;23;20246;-82
2021/12/29 07:51:30;;;;;;;13.70;9.53;;;;;;;2.73;89.57;98457.66;5040409;23;20214;-83
2021/12/29 07:54:51;;;;;;;13.47;9.37;;;;;;;2.66;90.04;98458.44;5116082;23;20290;-82
2021/12/29 07:58:28;;;;;;;13.50;10.37;;;;;;;2.81;89.38;98468.88;5048317;23;20213;-83
2021/12/29 08:01:34;;;;;;;13.57;9.60;;;;;;;2.98;88.97;98475.47;5044712;23;20214;-81
2021/12/29 08:04:37;;;;;;;13.17;9.70;;;;;;;3.16;88.98;98474.06;5062898;23;20228;-81
2021/12/29 08:12:21;;;;;;;12.33;9.17;;;;;;;3.35;87.67;98474.13;5051253;23;20230;-82
2021/12/29 08:15:39;;;;;;;13.33;9.80;;;;;;;3.54;87.44;98465.38;5221875;23;20231;-82
2021/12/29 08:18:51;;;;;;;12.20;8.53;;;;;;;3.68;87.09;98470.69;5060218;23;20230;-82
2021/12/29 08:25:43;;;;;;;11.90;8.50;;;;;;;3.91;86.82;98474.56;5030590;28;20221;-82
2021/12/29 08:29:26;;;;;;;12.10;8.40;;;;;;;4.15;86.10;98469.63;5059020;23;20210;-82
2021/12/29 08:32:50;;;;;;;10.50;8.63;;;;;;;4.58;85.05;98484.00;5061696;23;20227;-83
2021/12/29 08:35:54;;;;;;;11.37;8.67;;;;;;;4.69;84.48;98482.53;5046560;23;20222;-82
2021/12/29 08:38:57;;;;;;;11.33;8.97;;;;;;;4.54;84.16;98466.88;5033664;23;20222;-83
2021/12/29 08:42:15;;;;;;;12.13;9.57;;;;;;;4.77;84.47;98490.25;5138842;23;20210;-82
2021/12/29 08:45:42;;;;;;;10.70;7.70;;;;;;;4.76;83.91;98485.97;5061221;23;20238;-82
2021/12/29 08:48:53;;;;;;;10.60;8.03;;;;;;;4.81;83.72;98486.97;5060723;23;20219;-82
2021/12/29 08:55:50;;;;;;;12.70;9.33;;;;;;;5.11;83.34;98481.13;4997804;23;20246;-82
2021/12/29 08:59:15;;;;;;;10.93;8.70;;;;;;;5.12;83.34;98499.50;5071589;23;21324;-82
2021/12/29 09:01:59;;;;;;;10.17;8.00;;;;;;;5.23;84.15;98500.66;5048343;28;20230;-84
2021/12/29 09:04:26;;;;;;;9.10;7.60;;;;;;;5.38;83.12;98495.88;5050380;28;20226;-82
2021/12/29 09:07:01;;;;;;;16.17;11.50;;;;;;;5.61;83.77;98490.00;5051743;28;20613;-83
2021/12/29 09:09:30;;;;;;;9.67;7.27;;;;;;;5.78;83.02;98496.44;5034364;28;20230;-82
2021/12/29 09:12:22;;;;;;;9.87;7.27;;;;;;;6.00;82.67;98504.88;5020564;28;20226;-82
2021/12/29 09:15:39;;;;;;;10.00;7.07;;;;;;;6.22;82.39;98507.94;5030016;28;20237;-82
2021/12/29 09:18:58;;;;;;;8.40;7.13;;;;;;;6.45;81.65;98511.59;5016641;22;20281;-81
2021/12/29 09:22:45;;;;;;;9.37;7.67;;;;;;;6.60;81.42;98506.75;5159410;22;20218;-81
2021/12/29 09:25:59;;;;;;;9.63;7.97;;;;;;;6.78;81.00;98513.09;5067859;23;20226;-83
2021/12/29 09:28:54;;;;;;;8.97;7.43;;;;;;;6.89;81.36;98497.22;5086658;22;20236;-81
2021/12/29 09:32:54;;;;;;;9.70;7.37;;;;;;;7.23;80.65;98514.38;5155139;22;20249;-81
2021/12/29 09:36:03;;;;;;;9.17;7.03;;;;;;;7.28;80.94;98487.88;5055377;22;20225;-82
2021/12/29 09:38:56;;;;;;;8.80;7.10;;;;;;;7.61;81.74;98507.91;5380726;22;20212;-81
2021/12/29 09:42:16;;;;;;;8.30;6.43;;;;;;;7.72;81.60;98501.81;5012936;28;20226;-82
2021/12/29 09:45:30;;;;;;;9.03;6.80;;;;;;;7.88;81.52;98501.16;5036718;23;20210;-81
2021/12/29 09:49:07;;;;;;;9.70;8.40;;;;;;;7.75;79.38;98488.84;5048958;23;20218;-82
2021/12/29 09:52:38;;;;;;;10.80;8.07;;;;;;;7.94;80.26;98506.38;5070538;23;20241;-81
2021/12/29 09:56:03;;;;;;;9.97;8.87;;;;;;;7.90;79.10;98505.22;5188212;23;20226;-81
2021/12/29 10:02:46;;;;;;;10.87;9.17;;;;;;;7.39;77.55;98467.66;4689730;22;16024489;-81
2021/12/29 10:06:30;;;;;;;10.27;8.57;;;;;;;7.38;78.16;98490.81;5067995;22;20240;-81
2021/12/29 10:09:58;;;;;;;10.50;8.87;;;;;;;7.43;78.35;98501.63;5126420;22;20206;-81
2021/12/29 10:13:20;;;;;;;13.20;10.03;;;;;;;7.36;79.41;98500.91;5240916;22;20203;-81
2021/12/29 10:16:35;;;;;;;13.77;9.87;;;;;;;7.51;80.35;98514.63;5195480;22;20228;31
2021/12/29 10:19:55;;;;;;;12.07;10.20;;;;;;;7.67;79.62;98513.16;5064863;22;20264;-81
2021/12/29 10:27:03;;;;;;;4.47;3.57;;;;;;;7.84;81.02;98495.47;5060945;23;20261;-81
2021/12/29 10:30:25;;;;;;;1.97;1.53;;;;;;;8.06;81.59;98508.25;5082094;23;20225;-82
2021/12/29 10:33:25;;;;;;;2.70;2.00;;;;;;;8.18;81.85;98517.91;5067628;23;20233;-81
2021/12/29 10:36:58;;;;;;;2.40;2.10;;;;;;;8.40;80.90;98523.50;5091396;22;20320;-82
2021/12/29 10:40:30;;;;;;;3.60;2.17;;;;;;;8.55;79.34;98523.84;5071436;23;20206;-81
2021/12/29 10:43:23;;;;;;;2.37;1.30;;;;;;;8.69;78.99;98535.09;5158948;22;20235;-81
2021/12/29 10:46:52;;;;;;;3.00;2.80;;;;;;;8.62;79.14;98508.53;5169660;23;20220;-81
2021/12/29 10:50:34;;;;;;;2.30;2.10;;;;;;;8.56;79.59;98511.31;5052026;28;20238;-81
2021/12/29 10:53:45;;;;;;;5.40;5.00;;;;;;;8.64;80.69;98540.31;5031015;28;20245;-81
2021/12/29 10:57:35;;;;;;;52.53;41.27;;;;;;;8.70;80.98;98548.22;5104832;22;20220;31
2021/12/29 11:04:38;;;;;;;86.73;45.40;;;;;;;8.79;80.33;98554.00;5130703;22;20210;-81
2021/12/29 11:08:02;;;;;;;27.43;16.27;;;;;;;8.86;80.16;98564.59;5790309;23;20226;-81
2021/12/29 11:11:24;;;;;;;31.27;16.43;;;;;;;8.69;80.34;98530.56;4984209;23;20239;-81
2021/12/29 11:14:43;;;;;;;102.93;35.73;;;;;;;8.69;80.41;98557.28;5160529;23;20225;-81
2021/12/29 11:18:13;;;;;;;9.67;4.70;;;;;;;8.57;80.74;98561.00;5142267;23;20238;-81
2021/12/29 11:21:33;;;;;;;4.47;2.07;;;;;;;8.55;80.21;98557.72;4976661;29;20286;-81
2021/12/29 11:24:25;;;;;;;6.73;6.07;;;;;;;8.58;80.38;98558.09;4966872;28;20283;-81
2021/12/29 11:32:11;;;;;;;2.73;2.50;;;;;;;8.71;79.80;98567.72;5260011;23;20232;-81
2021/12/29 11:35:37;;;;;;;1.93;0.93;;;;;;;8.72;80.68;98572.84;4984495;28;20287;-81
2021/12/29 11:38:25;;;;;;;2.43;1.40;;;;;;;8.58;80.07;98570.63;5072272;23;20231;-81
2021/12/29 11:42:06;;;;;;;1.73;0.97;;;;;;;8.44;80.55;98562.06;5050009;23;20209;-80
2021/12/29 11:45:17;;;;;;;0.90;0.70;;;;;;;8.60;80.79;98565.88;5052790;23;20291;-81
2021/12/29 11:52:52;;;;;;;1.03;0.80;;;;;;;8.57;81.31;98571.69;5050240;23;20210;-81
2021/12/29 11:55:48;;;;;;;0.77;0.77;;;;;;;8.57;81.13;98569.00;5017947;28;20235;-81
2021/12/29 12:02:02;;;;;;;0.83;0.77;;;;;;;8.62;81.54;98574.47;4970694;28;20219;-81
2021/12/29 12:06:07;;;;;;;0.80;0.60;;;;;;;8.61;81.42;98576.31;5019459;23;20229;-81
2021/12/29 12:08:48;;;;;;;2.73;1.20;;;;;;;8.58;82.15;98567.97;5049952;28;20395;-81
2021/12/29 12:16:31;;;;;;;1.07;0.93;;;;;;;8.59;83.56;98578.41;5197525;23;20222;-80
2021/12/29 12:23:18;;;;;;;6.00;3.60;;;;;;;8.48;83.27;98560.53;5126438;23;20282;-81
2021/12/29 12:44:21;;;;;;;3.37;1.37;;;;;;;8.85;84.34;98590.47;4909481;29;20214;-82
2021/12/29 12:47:14;;;;;;;2.77;1.13;;;;;;;8.83;84.11;98596.03;4934799;29;20234;-81
2021/12/29 12:51:21;;;;;;;5.77;3.23;;;;;;;8.83;83.81;98593.38;5202533;23;20225;-81
2021/12/29 12:55:32;;;;;;;3.93;1.40;;;;;;;8.80;83.83;98596.53;4969665;23;20211;-80
2021/12/29 12:59:02;;;;;;;3.27;2.20;;;;;;;8.80;83.56;98593.03;4988915;23;20222;-80
2021/12/29 13:02:13;;;;;;;7.17;5.57;;;;;;;8.78;83.34;98605.78;5098878;23;20225;-81
2021/12/29 13:05:44;;;;;;;9.03;8.13;;;;;;;8.66;83.83;98618.34;4974540;23;20243;-80
2021/12/29 13:09:22;;;;;;;6.03;4.30;;;;;;;8.72;83.91;98609.41;4955001;29;20248;-81
2021/12/29 13:12:57;;;;;;;3.80;3.47;;;;;;;8.64;83.68;98615.91;4964004;23;20241;-81
2021/12/29 13:15:36;;;;;;;6.27;5.17;;;;;;;8.67;84.33;98626.13;4977580;23;20239;-81
2021/12/29 13:18:51;;;;;;;2.80;2.60;;;;;;;8.69;84.33;98628.56;4961544;29;20193;-81
2021/12/29 13:21:59;;;;;;;9.47;7.73;;;;;;;8.56;84.01;98621.59;4955693;29;20233;-81
2021/12/29 13:25:44;;;;;;;57.50;38.40;;;;;;;8.61;83.96;98624.38;4954053;23;20579;-81
2021/12/29 13:29:27;;;;;;;102.87;63.60;;;;;;;8.48;84.55;98627.28;4963537;23;20236;-81
2021/12/29 13:33:16;;;;;;;32.17;22.00;;;;;;;8.53;85.27;98638.06;5293641;23;20267;-79
2021/12/29 13:36:45;;;;;;;3.87;3.23;;;;;;;8.51;85.22;98639.34;4950761;23;20232;-81
2021/12/29 13:40:11;;;;;;;2.97;2.20;;;;;;;8.37;86.21;98636.06;4970665;23;20229;-81
2021/12/29 13:43:20;;;;;;;2.57;2.33;;;;;;;8.40;85.42;98625.72;4936112;23;20233;-80
2021/12/29 13:46:35;;;;;;;3.37;2.60;;;;;;;8.41;85.55;98650.56;4955874;29;20292;-81
2021/12/29 13:49:44;;;;;;;3.17;2.87;;;;;;;8.32;86.56;98657.28;4964334;23;20245;31
2021/12/29 13:53:01;;;;;;;2.63;2.40;;;;;;;8.30;86.68;98656.72;4926177;23;20220;-81
2021/12/29 13:56:24;;;;;;;3.37;2.50;;;;;;;8.21;87.63;98660.72;4924579;29;20218;-81
2021/12/29 14:00:01;;;;;;;3.40;3.10;;;;;;;8.13;87.87;98663.69;5106805;23;20233;-80
2021/12/29 14:02:49;;;;;;;7.47;6.87;;;;;;;8.05;88.27;98661.34;4934070;23;20253;-81
2021/12/29 14:06:13;;;;;;;5.77;5.27;;;;;;;8.13;88.19;98675.19;4908168;29;20240;-81
2021/12/29 14:12:43;;;;;;;3.40;3.10;;;;;;;8.04;87.80;98673.88;4936337;23;20306;-81
2021/12/29 14:16:23;;;;;;;9.10;8.23;;;;;;;8.20;87.36;98693.78;5052798;23;20232;-81
2021/12/29 14:19:33;;;;;;;3.70;3.40;;;;;;;8.13;86.77;98685.84;5015414;23;20237;-80
2021/12/29 14:22:29;;;;;;;3.00;2.30;;;;;;;8.21;86.36;98701.53;4962454;23;20221;-80
2021/12/29 14:25:24;;;;;;;3.73;1.87;;;;;;;8.24;87.04;98697.63;4954718;23;20239;-80
2021/12/29 14:32:43;;;;;;;4.70;1.90;;;;;;;8.20;85.73;98704.44;4934661;23;20248;-80
2021/12/29 14:35:19;;;;;;;2.73;2.53;;;;;;;7.98;87.88;98693.44;4959128;23;20261;-80
2021/12/29 14:38:52;;;;;;;3.10;2.80;;;;;;;7.94;88.17;98716.25;5037856;23;20244;-80
2021/12/29 14:42:14;;;;;;;3.27;3.07;;;;;;;7.90;88.04;98712.41;5048871;23;20260;-81
2021/12/29 14:46:25;;;;;;;5.00;4.27;;;;;;;7.87;88.06;98728.88;4962521;23;20198;-80
2021/12/29 14:49:58;;;;;;;4.73;4.33;;;;;;;7.80;89.41;98736.13;5054349;23;20224;-80
2021/12/29 14:53:26;;;;;;;4.60;4.13;;;;;;;7.81;88.41;98722.59;5043528;23;20217;-80
2021/12/29 14:56:54;;;;;;;5.20;4.70;;;;;;;7.78;88.30;98748.91;5127806;23;20253;-80
2021/12/29 15:00:08;;;;;;;4.17;3.60;;;;;;;7.74;87.54;98751.19;5127276;23;20232;-81
2021/12/29 15:03:09;;;;;;;4.00;3.70;;;;;;;7.75;87.65;98763.47;4967713;23;20294;-81
2021/12/29 15:06:42;;;;;;;4.73;4.23;;;;;;;7.66;88.16;98764.78;4987033;23;20229;-80
2021/12/29 15:09:34;;;;;;;4.83;4.40;;;;;;;7.43;88.60;98751.31;4959652;23;20244;-81
2021/12/29 15:13:09;;;;;;;4.80;4.40;;;;;;;7.50;89.41;98773.41;5053622;23;20241;-80
2021/12/29 15:16:27;;;;;;;6.90;6.20;;;;;;;7.43;89.52;98762.78;4959121;29;20222;-81
2021/12/29 15:20:07;;;;;;;7.50;6.80;;;;;;;7.40;89.68;98781.88;4948779;23;20230;-81
2021/12/29 15:23:20;;;;;;;7.10;5.87;;;;;;;7.46;89.87;98797.00;4933916;29;20238;-80
2021/12/29 15:26:27;;;;;;;8.17;6.17;;;;;;;7.42;89.69;98797.63;4966466;23;20221;-80
2021/12/29 15:29:48;;;;;;;6.90;5.67;;;;;;;7.50;90.11;98806.19;5011765;23;20248;-80
2021/12/29 15:32:40;;;;;;;4.40;3.07;;;;;;;7.49;90.37;98806.41;5028729;23;20196;-81
2021/12/29 15:39:12;;;;;;;1.33;1.10;;;;;;;7.61;89.30;98817.16;4954660;23;20230;-80
2021/12/29 15:42:26;;;;;;;1.20;1.03;;;;;;;7.51;88.06;98789.16;4964232;23;20238;-82
2021/12/29 15:45:39;;;;;;;1.73;1.10;;;;;;;7.78;87.38;98832.38;5059079;23;20233;-81
2021/12/29 15:48:40;;;;;;;0.90;0.90;;;;;;;8.08;86.31;98835.09;5033885;23;20235;-80
2021/12/29 15:52:03;;;;;;;1.43;0.70;;;;;;;8.03;85.09;98818.13;4935445;23;20253;-81
2021/12/29 15:55:09;;;;;;;1.60;0.87;;;;;;;8.16;84.50;98832.16;4942402;23;20229;-81
2021/12/29 15:58:19;;;;;;;1.57;0.90;;;;;;;8.28;84.37;98845.56;4971874;23;20230;-81
2021/12/29 16:01:05;;;;;;;0.87;0.80;;;;;;;8.27;84.85;98851.94;4945487;29;20203;-81
2021/12/29 16:03:59;;;;;;;0.90;0.67;;;;;;;8.35;84.20;98859.69;4958898;29;20221;-81
2021/12/29 16:07:28;;;;;;;1.93;0.70;;;;;;;8.36;84.20;98863.97;4958039;29;20264;-81
2021/12/29 16:10:08;;;;;;;0.83;0.73;;;;;;;8.27;85.14;98862.59;4980301;23;20245;-81
2021/12/29 16:13:17;;;;;;;0.90;0.83;;;;;;;8.13;85.26;98842.44;4941274;29;20212;-81
2021/12/29 16:16:50;;;;;;;1.73;0.93;;;;;;;8.22;84.95;98859.78;4970779;23;20211;-81
2021/12/29 16:19:58;;;;;;;0.73;0.70;;;;;;;8.27;84.96;98870.59;4963409;23;20226;-82
2021/12/29 16:22:59;;;;;;;1.30;0.80;;;;;;;8.18;85.56;98863.94;4965700;23;20229;-82
2021/12/29 16:30:14;;;;;;;1.83;0.93;;;;;;;8.41;84.77;98874.78;4928314;23;20239;-80
2021/12/29 16:33:22;;;;;;;0.80;0.80;;;;;;;8.19;84.34;98860.25;4962191;23;20252;-81
2021/12/29 16:36:53;;;;;;;1.47;1.37;;;;;;;8.26;84.82;98887.66;4942657;23;20226;-81
2021/12/29 16:40:08;;;;;;;1.30;1.20;;;;;;;8.15;84.31;98864.41;5054292;23;20235;-80
2021/12/29 16:42:59;;;;;;;2.60;1.13;;;;;;;8.31;84.07;98887.84;4956474;28;20221;-80
2021/12/29 16:46:27;;;;;;;1.50;0.80;;;;;;;8.29;83.66;98896.09;4956992;29;20184;-80
2021/12/29 16:49:27;;;;;;;1.33;0.97;;;;;;;8.27;83.60;98889.28;5051849;23;20225;-81
2021/12/29 16:56:25;;;;;;;0.87;0.70;;;;;;;8.37;82.05;98885.09;4953113;23;20247;-81
2021/12/29 17:04:13;;;;;;;1.40;1.20;;;;;;;8.49;82.33;98905.72;5170402;23;20198;-81
2021/12/29 17:11:48;;;;;;;0.90;0.90;;;;;;;8.50;81.27;98889.47;4963445;23;20233;-81
2021/12/29 17:15:12;;;;;;;1.60;0.90;;;;;;;8.64;80.39;98912.28;5038532;23;20292;-81
2021/12/29 17:19:07;;;;;;;1.33;0.90;;;;;;;8.71;79.86;98917.56;5190385;23;20196;-80
2021/12/29 17:22:20;;;;;;;0.80;0.80;;;;;;;8.51;80.29;98901.78;5070720;23;20663;-81